Flight Track Log - Related Links

Times and Time Zones

All times are in EDT time to prevent confusion due to time zone crossing. See the N838KE flight status page for this flight to view local times or setup timezone preferences in your user account.

Time Position Orientation Groundspeed Altitude Reporting Facility
EDT Latitude Longitude Course Direction KTS MPH feet Rate Location/Type
Thu 03:34:51 AM 64.8000 -148.0333 210° Southwest 260 299 7,400  Level Anchorage Center
Thu 03:35:51 AM 64.7500 -148.1667 229° Southwest 260 299 10,500 2,100 Climbing Anchorage Center
Thu 03:36:51 AM 64.7333 -148.3167 255° West 330 380 11,600 2,150 Climbing Anchorage Center
Thu 03:37:51 AM 64.7000 -148.5167 249° West 330 380 14,800 2,650 Climbing Anchorage Center
Thu 03:38:00 AM 64.2820 -148.9784 214° Southwest  Level FlightAware Approximate
Thu 03:38:51 AM 64.6667 -148.7333 250° West 340 391 16,900  Level Anchorage Center
Thu 03:39:00 AM 64.1804 -149.1363 214° Southwest  Level FlightAware Approximate
Thu 03:39:51 AM 64.6333 -148.9333 249° West 350 403 19,500  Level Anchorage Center
Thu 03:40:00 AM 64.0758 -149.2824 210° Southwest  Level FlightAware Approximate
Thu 03:40:51 AM 64.6000 -149.1667 252° West 350 403 21,700  Level Anchorage Center
Thu 03:41:52 AM 64.5667 -149.3833 250° West 360 414 23,800 2,000 Climbing Anchorage Center
Thu 03:42:51 AM 64.5333 -149.6000 250° West 370 426 25,700 1,966 Climbing Anchorage Center
Thu 03:43:51 AM 64.4833 -149.8333 244° Southwest 380 437 27,700 1,700 Climbing Anchorage Center
Thu 03:44:51 AM 64.4500 -150.0500 250° West 370 426 29,100 1,339 Climbing Anchorage Center
Thu 03:45:52 AM 64.4167 -150.2833 252° West 380 437 30,400 1,289 Climbing Anchorage Center
Thu 03:46:52 AM 64.3667 -150.5333 245° Southwest 400 460 31,700 1,200 Climbing Anchorage Center
Thu 03:47:52 AM 64.3333 -150.7667 252° West 400 460 32,800 1,300 Climbing Anchorage Center
Thu 03:48:52 AM 64.2833 -151.0167 245° Southwest 400 460 34,300 1,300 Climbing Anchorage Center
Thu 03:49:52 AM 64.2500 -151.2500 252° West 410 472 35,400 1,050 Climbing Anchorage Center
Thu 03:50:52 AM 64.2000 -151.5000 245° Southwest 410 472 36,400 1,000 Climbing Anchorage Center
Thu 03:51:52 AM 64.1500 -151.7500 245° Southwest 410 472 37,400 893 Climbing Anchorage Center
Thu 03:52:53 AM 64.1167 -152.0000 253° West 420 483 38,200 843 Climbing Anchorage Center
Thu 03:53:53 AM 64.0667 -152.2333 244° Southwest 420 483 39,100 900 Climbing Anchorage Center
Thu 03:54:53 AM 64.0167 -152.4833 246° West 420 483 40,000 450 Climbing Anchorage Center
Thu 03:55:53 AM 63.9667 -152.7333 246° West 430 495 40,000  Level Anchorage Center
Thu 03:56:53 AM 63.9167 -153.0000 247° West 430 495 40,000  Level Anchorage Center
Thu 03:57:53 AM 63.8667 -153.2667 247° West 440 506 40,000  Level Anchorage Center
Thu 03:58:53 AM 63.8167 -153.5167 246° West 440 506 40,000  Level Anchorage Center
Thu 03:59:54 AM 63.7667 -153.7667 246° West 430 495 40,000  Level Anchorage Center
Thu 04:00:54 AM 63.7167 -154.0167 246° West 440 506 40,000  Level Anchorage Center
Thu 04:01:54 AM 63.6667 -154.2833 247° West 440 506 40,000  Level Anchorage Center
Thu 04:02:54 AM 63.6167 -154.5333 246° West 440 506 40,000  Level Anchorage Center
Thu 04:03:54 AM 63.5667 -154.7833 246° West 440 506 40,000  Level Anchorage Center
Thu 04:05:54 AM 63.4500 -155.2833 243° Southwest 440 506 40,000  Level Anchorage Center
Thu 04:06:54 AM 63.4000 -155.5167 245° Southwest 440 506 40,000  Level Anchorage Center
Thu 04:07:54 AM 63.3500 -155.7667 246° West 440 506 40,000  Level Anchorage Center
Thu 04:08:54 AM 63.3000 -156.0167 246° West 440 506 40,000  Level Anchorage Center
Thu 04:09:54 AM 63.2333 -156.2500 238° Southwest 440 506 40,000  Level Anchorage Center
Thu 04:10:55 AM 63.1833 -156.5000 246° West 440 506 40,000  Level Anchorage Center
Thu 04:11:55 AM 63.1333 -156.7500 246° West 450 518 40,000  Level Anchorage Center
Thu 04:12:55 AM 63.0667 -157.0000 240° Southwest 450 518 40,000  Level Anchorage Center
Thu 04:13:55 AM 63.0167 -157.2333 245° Southwest 440 506 40,000  Level Anchorage Center
Thu 04:14:55 AM 62.9500 -157.4833 240° Southwest 450 518 40,000  Level Anchorage Center
Thu 04:15:55 AM 62.9000 -157.7167 245° Southwest 450 518 40,000  Level Anchorage Center
Thu 04:16:55 AM 62.8333 -157.9667 240° Southwest 450 518 40,000  Level Anchorage Center
Thu 04:17:55 AM 62.7833 -158.2167 246° West 450 518 40,000  Level Anchorage Center
Thu 04:18:56 AM 62.7167 -158.4500 238° Southwest 450 518 40,000  Level Anchorage Center
Thu 04:19:56 AM 62.6500 -158.7000 240° Southwest 460 529 40,000  Level Anchorage Center
Thu 04:20:56 AM 62.6000 -158.9500 247° West 450 518 40,000  Level Anchorage Center
Thu 04:21:56 AM 62.5333 -159.1833 238° Southwest 460 529 40,000  Level Anchorage Center
Thu 04:22:56 AM 62.4667 -159.4333 240° Southwest 460 529 40,000  Level Anchorage Center
Thu 04:23:56 AM 62.4000 -159.6667 238° Southwest 460 529 40,000  Level Anchorage Center
Thu 04:24:56 AM 62.3333 -159.9167 240° Southwest 450 518 40,000  Level Anchorage Center
Thu 04:25:56 AM 62.2833 -160.1500 245° Southwest 460 529 40,000  Level Anchorage Center
Thu 04:26:56 AM 62.2167 -160.3833 239° Southwest 460 529 40,000  Level Anchorage Center
Thu 04:27:56 AM 62.1500 -160.6333 240° Southwest 460 529 40,000  Level Anchorage Center
Thu 04:28:56 AM 62.0667 -160.8833 235° Southwest 460 529 40,000  Level Anchorage Center
Thu 04:29:57 AM 62.0000 -161.1333 240° Southwest 470 541 40,000  Level Anchorage Center
Thu 04:30:57 AM 61.9333 -161.3667 239° Southwest 460 529 40,000  Level Anchorage Center
Thu 04:31:57 AM 61.8667 -161.6000 239° Southwest 460 529 40,000  Level Anchorage Center
Thu 04:32:57 AM 61.8000 -161.8167 237° Southwest 450 518 40,000  Level Anchorage Center
Thu 04:33:57 AM 61.7333 -162.0500 239° Southwest 460 529 40,000  Level Anchorage Center
Thu 04:34:57 AM 61.6667 -162.2833 239° Southwest 450 518 40,000  Level Anchorage Center
Thu 04:35:57 AM 61.6000 -162.5167 239° Southwest 450 518 40,000  Level Anchorage Center
Thu 04:36:58 AM 61.5333 -162.7500 239° Southwest 460 529 40,000  Level Anchorage Center
Thu 04:37:58 AM 61.4667 -162.9667 237° Southwest 470 541 40,000  Level Anchorage Center
Thu 04:38:58 AM 61.4000 -163.2000 239° Southwest 460 529 40,000  Level Anchorage Center
Thu 04:39:58 AM 61.3167 -163.4333 233° Southwest 460 529 40,000  Level Anchorage Center
Thu 04:40:58 AM 61.2500 -163.6500 237° Southwest 460 529 40,000  Level Anchorage Center
Thu 04:41:58 AM 61.1833 -163.8833 239° Southwest 460 529 40,000  Level Anchorage Center
Thu 04:42:58 AM 61.1167 -164.1000 238° Southwest 460 529 40,000  Level Anchorage Center
Thu 04:43:58 AM 61.0333 -164.3333 234° Southwest 460 529 40,000  Level Anchorage Center
Thu 04:44:59 AM 60.9667 -164.5500 238° Southwest 460 529 40,000  Level Anchorage Center
Thu 04:45:59 AM 60.8833 -164.7667 232° Southwest 460 529 40,000  Level Anchorage Center
Thu 04:46:59 AM 60.8167 -164.9833 238° Southwest 450 518 40,000  Level Anchorage Center
Thu 04:47:59 AM 60.7833 -165.2500 256° West 470 541 40,000  Level Anchorage Center
Thu 04:48:59 AM 60.7333 -165.5000 248° West 460 529 40,000  Level Anchorage Center
Thu 04:49:59 AM 60.7000 -165.7500 255° West 470 541 40,000  Level Anchorage Center
Thu 04:50:59 AM 60.6500 -166.0167 249° West 470 541 40,000  Level Anchorage Center
Thu 04:51:59 AM 60.6167 -166.2667 255° West 470 541 40,000  Level Anchorage Center
Thu 04:53:13 AM 60.5667 -166.5667 251° West 460 529 40,000  Level Anchorage Center
Thu 04:54:13 AM 60.5167 -166.8167 248° West 460 529 40,000  Level Anchorage Center
Thu 04:55:13 AM 60.4833 -167.0667 255° West 470 541 40,000  Level Anchorage Center
Thu 04:56:13 AM 60.4333 -167.3167 248° West 460 529 40,000  Level Anchorage Center
Thu 04:57:13 AM 60.3833 -167.5667 248° West 470 541 40,000  Level Anchorage Center
Thu 04:58:14 AM 60.3333 -167.8167 248° West 460 529 40,000  Level Anchorage Center
Thu 04:59:14 AM 60.3000 -168.0500 254° West 470 541 40,000  Level Anchorage Center
Thu 05:00:14 AM 60.2500 -168.3000 248° West 470 541 40,000  Level Anchorage Center
Thu 05:01:14 AM 60.2000 -168.5667 249° West 480 552 40,000  Level Anchorage Center
Thu 05:02:14 AM 60.1500 -168.8167 248° West 470 541 40,000  Level Anchorage Center
Thu 05:03:14 AM 60.1167 -169.0500 254° West 470 541 40,000  Level Anchorage Center
Thu 05:04:14 AM 60.0667 -169.3000 248° West 460 529 40,000  Level Anchorage Center
Thu 05:05:14 AM 60.0167 -169.5500 248° West 480 552 40,000  Level Anchorage Center
Thu 05:06:14 AM 59.9667 -169.7833 247° West 470 541 40,000  Level Anchorage Center
Thu 05:07:14 AM 59.9167 -170.0333 248° West 470 541 40,000  Level Anchorage Center
Thu 05:08:14 AM 59.8667 -170.2833 248° West 470 541 40,000  Level Anchorage Center
Thu 05:09:14 AM 59.8167 -170.5167 247° West 470 541 40,000  Level Anchorage Center
Thu 05:10:14 AM 59.7667 -170.7667 248° West 470 541 40,000  Level Anchorage Center
Thu 05:11:14 AM 59.7167 -171.0000 247° West 480 552 40,000  Level Anchorage Center
Thu 05:12:14 AM 59.6667 -171.2500 248° West 480 552 40,000  Level Anchorage Center
Thu 05:13:15 AM 59.6167 -171.5000 249° West 470 541 40,000  Level Anchorage Center
Thu 05:14:15 AM 59.5667 -171.7333 247° West 470 541 40,000  Level Anchorage Center
Thu 05:15:14 AM 59.5167 -171.9667 247° West 480 552 40,000  Level Anchorage Center
Thu 05:16:15 AM 59.4667 -172.2333 250° West 480 552 40,000  Level Anchorage Center
Thu 05:17:15 AM 59.4167 -172.4667 247° West 480 552 40,000  Level Anchorage Center
Thu 05:18:15 AM 59.3667 -172.7167 249° West 480 552 40,000  Level Anchorage Center
Thu 05:19:15 AM 59.3167 -172.9500 247° West 480 552 40,000  Level Anchorage Center
Thu 05:20:15 AM 59.2667 -173.2000 249° West 470 541 40,000  Level Anchorage Center
Thu 05:21:15 AM 59.2167 -173.4333 247° West 470 541 40,000  Level Anchorage Center
Thu 05:22:15 AM 59.1667 -173.6667 247° West 470 541 40,000  Level Anchorage Center
Thu 05:23:15 AM 59.1000 -173.9167 243° Southwest 480 552 40,000  Level Anchorage Center
Thu 05:24:15 AM 59.0500 -174.1500 247° West 480 552 40,000  Level Anchorage Center
Thu 05:25:15 AM 59.0000 -174.4000 249° West 480 552 40,000  Level Anchorage Center
Thu 05:26:15 AM 58.9500 -174.6333 248° West 480 552 40,000  Level Anchorage Center
Thu 05:27:15 AM 58.9000 -174.8667 248° West 470 541 40,000  Level Anchorage Center
Thu 05:28:15 AM 58.8500 -175.1167 249° West 480 552 40,000  Level Anchorage Center
Thu 05:29:16 AM 58.7833 -175.3500 241° Southwest 480 552 40,000  Level Anchorage Center
Thu 05:30:16 AM 58.7333 -175.5833 248° West 470 541 40,000  Level Anchorage Center
Thu 05:31:16 AM 58.6833 -175.8167 248° West 470 541 40,000  Level Anchorage Center
Thu 05:32:15 AM 58.6333 -176.0500 248° West 470 541 40,000  Level Anchorage Center
Thu 05:33:16 AM 58.5667 -176.2667 240° Southwest 470 541 40,000  Level Anchorage Center
Thu 05:34:16 AM 58.5167 -176.5167 249° West 480 552 40,000  Level Anchorage Center
Thu 05:35:16 AM 58.4500 -176.7500 241° Southwest 480 552 40,000  Level Anchorage Center
Thu 05:36:16 AM 58.4000 -176.9667 246° West 470 541 40,000  Level Anchorage Center
Thu 05:37:16 AM 58.3500 -177.2000 248° West 480 552 40,000  Level Anchorage Center
Thu 05:40:00 AM 58.2589 -177.5642 245° Southwest  Level FlightAware Approximate
Thu 05:46:26 AM 57.8333 -179.2000 243° Southwest 478 550 40,000  Level Anchorage Center
Thu 05:47:00 AM 57.8808 -179.0161 244° Southwest  Level FlightAware Approximate
Thu 05:48:00 AM 57.8254 -179.2209 243° Southwest  Level FlightAware Approximate
Thu 05:49:00 AM 57.7697 -179.4252 243° Southwest  Level FlightAware Approximate
Thu 05:50:00 AM 57.7137 -179.6288 243° Southwest  Level FlightAware Approximate
Thu 05:51:00 AM 57.6574 -179.8318 243° Southwest  Level FlightAware Approximate
Thu 05:52:00 AM 57.4759 179.5182 242° Southwest 478 550 40,000  Level FlightAware Transoceanic
Thu 05:53:00 AM 57.4150 179.3070 242° Southwest 478 550 40,000  Level FlightAware Transoceanic
Thu 05:54:00 AM 57.3538 179.0965 242° Southwest 478 550 40,000  Level FlightAware Transoceanic
Thu 05:55:00 AM 57.2923 178.8867 241° Southwest 478 550 40,000  Level FlightAware Transoceanic
Thu 05:56:00 AM 57.2304 178.6777 241° Southwest 478 550 40,000  Level FlightAware Transoceanic
Thu 05:56:06 AM 57.2500 178.7167 241° Southwest 470 541 40,000  Level Anchorage Center
Thu 05:57:00 AM 57.1682 178.4693 241° Southwest 478 550 40,000  Level FlightAware Transoceanic
Thu 05:58:00 AM 57.1056 178.2616 241° Southwest 478 550 40,000  Level FlightAware Transoceanic
Thu 05:59:00 AM 57.0427 178.0547 241° Southwest 478 550 40,000  Level FlightAware Transoceanic
Thu 06:00:00 AM 56.9795 177.8484 241° Southwest 478 550 40,000  Level FlightAware Transoceanic
Thu 06:01:00 AM 56.9159 177.6428 240° Southwest 478 550 40,000  Level FlightAware Transoceanic
Thu 06:02:00 AM 56.8684 177.4692 240° Southwest 470 541 40,000  Level FlightAware Transoceanic
Thu 06:02:34 AM 56.8333 177.3500 240° Southwest 471 542 40,000  Level Anchorage Center
Thu 06:03:00 AM 56.8036 177.2638 240° Southwest 470 541 40,000  Level FlightAware Transoceanic
Thu 06:04:00 AM 56.7384 177.0591 240° Southwest 470 541 40,000  Level FlightAware Transoceanic
Thu 06:05:00 AM 56.6730 176.8551 240° Southwest 470 541 40,000  Level FlightAware Transoceanic
Thu 06:05:42 AM 56.6333 176.7333 240° Southwest 470 541 40,000  Level Anchorage Center
Thu 06:06:00 AM 56.6072 176.6518 239° Southwest 470 541 40,000  Level FlightAware Transoceanic
Thu 06:07:00 AM 56.5410 176.4492 239° Southwest 470 541 40,000  Level FlightAware Transoceanic
Thu 06:08:00 AM 56.4462 176.1555 239° Southwest 471 542 40,000  Level FlightAware Transoceanic
Thu 06:09:00 AM 56.3805 175.9589 239° Southwest 471 542 40,000  Level FlightAware Transoceanic
Thu 06:10:00 AM 56.3146 175.7628 239° Southwest 471 542 40,000  Level FlightAware Transoceanic
Thu 06:11:00 AM 56.2483 175.5675 238° Southwest 471 542 40,000 1,890 Level FlightAware Transoceanic
Thu 06:11:13 AM 56.2500 175.5667 238° Southwest 480 552 42,300  Climbing Anchorage Center
Thu 06:12:00 AM 56.1760 175.3614 238° Southwest 470 541 40,000 400 Descending FlightAware Transoceanic
Thu 06:12:13 AM 56.1833 175.4000 234° Southwest 470 541 42,700  Climbing Anchorage Center
Thu 06:13:00 AM 56.1094 175.1681 238° Southwest 470 541 40,000 305 Descending FlightAware Transoceanic
Thu 06:13:12 AM 56.1000 175.1833 235° Southwest 470 541 43,000  Climbing Anchorage Center
Thu 06:14:00 AM 56.0426 174.9755 238° Southwest 470 541 40,000  Descending FlightAware Transoceanic
Thu 06:14:13 AM 56.0500 175.0167 242° Southwest 470 541 43,000  Climbing Anchorage Center
Thu 06:15:00 AM 55.9754 174.7835 238° Southwest 470 541 40,000  Descending FlightAware Transoceanic
Thu 06:15:13 AM 55.9667 174.7833 238° Southwest 480 552 43,000  Climbing Anchorage Center
Thu 06:16:00 AM 55.9080 174.5922 238° Southwest 470 541 40,000  Descending FlightAware Transoceanic
Thu 06:16:13 AM 55.9000 174.5667 241° Southwest 480 552 43,000 2,466 Climbing Anchorage Center
Thu 06:17:13 AM 55.8333 174.4000 235° Southwest 470 541 43,000  Level Anchorage Center
Thu 06:18:13 AM 55.7500 174.1833 236° Southwest 470 541 43,000  Level Anchorage Center
Thu 06:19:13 AM 55.7000 174.0167 242° Southwest 470 541 43,000  Level Anchorage Center
Thu 06:20:13 AM 55.6167 173.8000 236° Southwest 460 529 43,000  Level Anchorage Center
Thu 06:21:13 AM 55.5500 173.6333 235° Southwest 470 541 43,000  Level Anchorage Center
Thu 06:22:13 AM 55.4833 173.4333 240° Southwest 470 541 43,000  Level Anchorage Center
Thu 06:23:13 AM 55.4167 173.2667 235° Southwest 470 541 43,000  Level Anchorage Center
Thu 06:24:14 AM 55.3333 173.0500 236° Southwest 470 541 43,000  Level Anchorage Center
Thu 06:25:13 AM 55.2500 172.8500 234° Southwest 470 541 43,000  Level Anchorage Center
Thu 06:26:14 AM 55.2000 172.6833 242° Southwest 470 541 43,000  Level Anchorage Center
Thu 06:27:14 AM 55.1167 172.4667 236° Southwest 470 541 43,000  Level Anchorage Center
Thu 06:28:14 AM 55.0500 172.3000 235° Southwest 490 564 43,000  Level Anchorage Center
Thu 06:29:13 AM 54.9667 172.1000 234° Southwest 470 541 43,000  Level Anchorage Center
Thu 06:30:14 AM 54.9000 171.9333 235° Southwest 470 541 43,000  Level Anchorage Center
Thu 06:31:14 AM 54.8167 171.7333 234° Southwest 470 541 43,000  Level Anchorage Center
Thu 06:32:14 AM 54.7333 171.5333 234° Southwest 480 552 43,000  Level Anchorage Center
Thu 06:33:14 AM 54.6667 171.3667 235° Southwest 480 552 43,000  Level Anchorage Center
Thu 06:34:14 AM 54.5833 171.1667 234° Southwest 480 552 43,000  Level Anchorage Center
Thu 06:35:14 AM 54.5167 171.0000 235° Southwest 470 541 43,000  Level Anchorage Center
Thu 06:36:14 AM 54.4333 170.8000 234° Southwest 480 552 43,000  Level Anchorage Center
Thu 06:37:14 AM 54.3667 170.6500 233° Southwest 470 541 43,000  Level Anchorage Center
Thu 06:38:14 AM 54.2833 170.4500 235° Southwest 480 552 43,000  Level Anchorage Center
Thu 06:39:14 AM 54.2167 170.3000 233° Southwest 450 518 43,000  Level Anchorage Center
Thu 06:40:14 AM 54.1333 170.0833 237° Southwest 490 564 43,000  Level Anchorage Center
Thu 06:41:14 AM 54.0333 169.9000 227° Southwest 490 564 43,000  Level Anchorage Center
Thu 06:42:14 AM 53.9667 169.7500 233° Southwest 470 541 43,000  Level Anchorage Center
Thu 06:43:14 AM 53.8833 169.5667 232° Southwest 450 518 43,000  Level Anchorage Center
Thu 06:44:14 AM 53.8167 169.4167 233° Southwest 460 529 43,000  Level Anchorage Center
Thu 06:45:14 AM 53.7333 169.2333 233° Southwest 460 529 43,000  Level Anchorage Center
Thu 06:46:14 AM 53.6667 169.0500 239° Southwest 520 598 43,000  Level Anchorage Center
Thu 06:47:14 AM 53.6167 168.8500 247° West 450 518 43,000  Level Anchorage Center
Thu 06:48:14 AM 53.5500 168.6500 241° Southwest 460 529 43,000  Level Anchorage Center
Thu 06:49:15 AM 53.4833 168.5000 233° Southwest 440 506 43,000  Level Anchorage Center
Thu 06:50:15 AM 53.4167 168.2833 243° Southwest 470 541 43,000  Level Anchorage Center
Thu 06:51:15 AM 53.3667 168.1333 241° Southwest 460 529 43,000  Level Anchorage Center
Thu 06:52:15 AM 53.3000 167.9333 241° Southwest 460 529 43,000  Level Anchorage Center
Thu 06:53:15 AM 53.2333 167.7833 233° Southwest 450 518 43,000  Level Anchorage Center
Thu 06:54:15 AM 53.1667 167.5833 241° Southwest 470 541 43,000  Level Anchorage Center
Thu 06:57:00 AM 53.0568 167.2755 239° Southwest  Level FlightAware Approximate
Thu 07:03:10 AM 52.6000 166.0167 238° Southwest 451 519 43,000  Level Anchorage Center
Thu 07:04:00 AM 52.6095 166.0598 239° Southwest  Level FlightAware Approximate
Thu 07:05:00 AM 52.5446 165.8882 238° Southwest  Level FlightAware Approximate
Thu 07:06:00 AM 52.4794 165.7171 238° Southwest  Level FlightAware Approximate
Thu 07:07:00 AM 52.4140 165.5464 238° Southwest  Level FlightAware Approximate
Thu 07:08:00 AM 52.3484 165.3763 238° Southwest  Level FlightAware Approximate
Thu 07:09:00 AM 52.1923 164.9629 237° Southwest 451 519 43,000  Level FlightAware Transoceanic
Thu 07:10:00 AM 52.1234 164.7892 237° Southwest 451 519 43,000  Level FlightAware Transoceanic
Thu 07:11:00 AM 52.0543 164.6160 237° Southwest 451 519 43,000  Level FlightAware Transoceanic
Thu 07:12:00 AM 51.9850 164.4433 237° Southwest 451 519 43,000  Level FlightAware Transoceanic
Thu 07:12:47 AM 51.9667 164.3833 237° Southwest 447 514 43,000  Level Anchorage Center
Thu 07:13:00 AM 51.9154 164.2712 237° Southwest 451 519 43,000  Level FlightAware Transoceanic
Thu 07:14:00 AM 51.8455 164.0996 237° Southwest 451 519 43,000  Level FlightAware Transoceanic
Thu 07:15:00 AM 51.7754 163.9285 236° Southwest 451 519 43,000  Level FlightAware Transoceanic
Thu 07:16:00 AM 51.7050 163.7580 236° Southwest 451 519 43,000  Level FlightAware Transoceanic
Thu 07:17:00 AM 51.6344 163.5880 236° Southwest 451 519 43,000  Level FlightAware Transoceanic
Thu 07:17:05 AM 51.6500 163.6500 236° Southwest 463 533 43,000  Level Anchorage Center
Thu 07:18:00 AM 51.5635 163.4185 236° Southwest 451 519 43,000  Level FlightAware Transoceanic
Thu 07:19:00 AM 51.4778 163.2040 236° Southwest 447 514 43,000  Level FlightAware Transoceanic
Thu 07:20:00 AM 51.4070 163.0376 236° Southwest 447 514 43,000  Level FlightAware Transoceanic
Thu 07:21:00 AM 51.3360 162.8717 235° Southwest 447 514 43,000  Level FlightAware Transoceanic
Thu 07:22:00 AM 51.2648 162.7063 235° Southwest 447 514 43,000  Level FlightAware Transoceanic
Thu 07:22:22 AM 51.2833 162.7500 235° Southwest 463 533 43,000  Level Anchorage Center
Thu 07:23:00 AM 51.2181 162.6260 236° Southwest 463 533 43,000  Level FlightAware Transoceanic
Thu 07:24:00 AM 51.1452 162.4572 235° Southwest 463 533 43,000  Level FlightAware Transoceanic
Thu 07:25:00 AM 51.0721 162.2890 235° Southwest 463 533 43,000  Level FlightAware Transoceanic
Thu 07:26:00 AM 50.9988 162.1213 235° Southwest 463 533 43,000  Level FlightAware Transoceanic
Thu 07:27:00 AM 50.9252 161.9541 235° Southwest 463 533 43,000  Level FlightAware Transoceanic
Thu 07:28:00 AM 50.8459 161.7554 235° Southwest 463 533 43,000  Level FlightAware Transoceanic
Thu 07:29:00 AM 50.7722 161.5915 235° Southwest 463 533 43,000  Level FlightAware Transoceanic
Thu 07:30:00 AM 50.6982 161.4281 234° Southwest 463 533 43,000  Level FlightAware Transoceanic
Thu 07:31:00 AM 50.6241 161.2652 234° Southwest 463 533 43,000  Level FlightAware Transoceanic
Thu 07:31:58 AM 50.5833 161.1833 234° Southwest 455 524 43,000  Level Anchorage Center
Thu 07:32:00 AM 50.5497 161.1028 234° Southwest 463 533 43,000  Level FlightAware Transoceanic
Thu 07:33:00 AM 50.4750 160.9409 234° Southwest 463 533 43,000  Level FlightAware Transoceanic
Thu 07:34:00 AM 50.4002 160.7796 234° Southwest 463 533 43,000  Level FlightAware Transoceanic
Thu 07:35:00 AM 50.3251 160.6187 234° Southwest 463 533 43,000  Level FlightAware Transoceanic
Thu 07:36:00 AM 50.2498 160.4583 234° Southwest 463 533 43,000  Level FlightAware Transoceanic
Thu 07:37:00 AM 50.1743 160.2985 234° Southwest 463 533 43,000  Level FlightAware Transoceanic
Thu 07:37:04 AM 50.2000 160.3833 234° Southwest 455 524 43,000  Level Anchorage Center
Thu 07:38:00 AM 50.1142 160.1751 234° Southwest 455 524 43,000  Level FlightAware Transoceanic
Thu 07:39:00 AM 50.0351 160.0090 233° Southwest 455 524 43,000  Level FlightAware Transoceanic
Thu 07:40:00 AM 49.9559 159.8434 233° Southwest 455 524 43,000  Level FlightAware Transoceanic
Thu 07:41:00 AM 49.8764 159.6784 233° Southwest 455 524 43,000  Level FlightAware Transoceanic
Thu 07:42:00 AM 49.7966 159.5139 233° Southwest 455 524 43,000  Level FlightAware Transoceanic
Thu 07:43:00 AM 49.7167 159.3500 233° Southwest 455 524 43,000  Level FlightAware Transoceanic
Thu 07:44:00 AM 49.6394 159.1923 233° Southwest 455 524 43,000  Level FlightAware Transoceanic
Thu 07:45:00 AM 49.5619 159.0351 233° Southwest 455 524 43,000  Level FlightAware Transoceanic
Thu 07:46:00 AM 49.4843 158.8784 233° Southwest 455 524 43,000  Level FlightAware Transoceanic
Thu 07:47:00 AM 49.4064 158.7222 232° Southwest 455 524 43,000  Level FlightAware Transoceanic
Thu 07:48:00 AM 49.3283 158.5665 232° Southwest 455 524 43,000  Level FlightAware Transoceanic
Thu 07:49:00 AM 49.2500 158.4113 232° Southwest 455 524 43,000  Level FlightAware Transoceanic
Thu 07:50:00 AM 49.1714 158.2565 232° Southwest 455 524 43,000  Level FlightAware Transoceanic
Thu 07:51:00 AM 49.0927 158.1023 232° Southwest 455 524 43,000  Level FlightAware Transoceanic
Thu 07:52:00 AM 49.0138 157.9485 232° Southwest 455 524 43,000  Level FlightAware Transoceanic
Thu 07:53:00 AM 48.9347 157.7953 232° Southwest 455 524 43,000  Level FlightAware Transoceanic
Thu 07:54:00 AM 48.8553 157.6425 232° Southwest 455 524 43,000  Level FlightAware Transoceanic
Thu 07:55:00 AM 48.7758 157.4902 232° Southwest 455 524 43,000  Level FlightAware Transoceanic
Thu 07:56:00 AM 48.6960 157.3384 231° Southwest 455 524 43,000  Level FlightAware Transoceanic
Thu 07:57:00 AM 48.6161 157.1871 231° Southwest 455 524 43,000  Level FlightAware Transoceanic
Thu 07:58:00 AM 48.5360 157.0362 231° Southwest 455 524 43,000  Level FlightAware Transoceanic
Thu 07:59:00 AM 48.4557 156.8859 231° Southwest 455 524 43,000  Level FlightAware Transoceanic
Thu 08:00:00 AM 48.3751 156.7360 231° Southwest 455 524 43,000  Level FlightAware Transoceanic
Thu 08:01:00 AM 48.2944 156.5865 231° Southwest 455 524 43,000  Level FlightAware Transoceanic
Thu 08:02:00 AM 48.2135 156.4376 231° Southwest 455 524 43,000  Level FlightAware Transoceanic
Thu 08:03:00 AM 48.1324 156.2891 231° Southwest 455 524 43,000  Level FlightAware Transoceanic
Thu 08:04:00 AM 48.0511 156.1411 231° Southwest 455 524 43,000  Level FlightAware Transoceanic
Thu 08:05:00 AM 47.9696 155.9936 230° Southwest 455 524 43,000  Level FlightAware Transoceanic
Thu 08:06:00 AM 47.8880 155.8465 230° Southwest 455 524 43,000  Level FlightAware Transoceanic
Thu 08:07:00 AM 47.8061 155.6999 230° Southwest 455 524 43,000  Level FlightAware Transoceanic
Thu 08:08:00 AM 47.7240 155.5537 230° Southwest 455 524 43,000  Level FlightAware Transoceanic
Thu 08:09:00 AM 47.6418 155.4080 230° Southwest 455 524 43,000  Level FlightAware Transoceanic
Thu 08:10:00 AM 47.5594 155.2628 230° Southwest 455 524 43,000  Level FlightAware Transoceanic
Thu 08:11:00 AM 47.4768 155.1180 230° Southwest 455 524 43,000  Level FlightAware Transoceanic
Thu 08:12:00 AM 47.3940 154.9737 230° Southwest 455 524 43,000  Level FlightAware Transoceanic
Thu 08:13:00 AM 47.3111 154.8298 230° Southwest 455 524 43,000  Level FlightAware Transoceanic
Thu 08:14:00 AM 47.2279 154.6864 229° Southwest 455 524 43,000  Level FlightAware Transoceanic
Thu 08:15:00 AM 47.1446 154.5435 229° Southwest 455 524 43,000  Level FlightAware Transoceanic
Thu 08:16:00 AM 47.0611 154.4009 229° Southwest 455 524 43,000  Level FlightAware Transoceanic
Thu 08:17:00 AM 46.9775 154.2589 229° Southwest 455 524 43,000  Level FlightAware Transoceanic
Thu 08:18:00 AM 46.8936 154.1172 229° Southwest 455 524 43,000  Level FlightAware Transoceanic
Thu 08:19:00 AM 46.8096 153.9760 229° Southwest 455 524 43,000  Level FlightAware Transoceanic
Thu 08:20:00 AM 46.7254 153.8353 229° Southwest 455 524 43,000  Level FlightAware Transoceanic
Thu 08:21:00 AM 46.6410 153.6950 229° Southwest 455 524 43,000  Level FlightAware Transoceanic
Thu 08:22:00 AM 46.5565 153.5551 229° Southwest 455 524 43,000  Level FlightAware Transoceanic
Thu 08:23:00 AM 46.4718 153.4157 229° Southwest 455 524 43,000  Level FlightAware Transoceanic
Thu 08:24:00 AM 46.3869 153.2767 228° Southwest 455 524 43,000  Level FlightAware Transoceanic
Thu 08:25:00 AM 46.3019 153.1381 228° Southwest 455 524 43,000  Level FlightAware Transoceanic
Thu 08:26:00 AM 46.2441 152.9814 242° Southwest  Level FlightAware Approximate
Thu 08:27:00 AM 46.1861 152.8249 242° Southwest  Level FlightAware Approximate
Thu 08:28:00 AM 46.1279 152.6688 242° Southwest  Level FlightAware Approximate
Thu 08:29:00 AM 46.1236 152.6674 229° Southwest  Level FlightAware Approximate
Thu 08:30:00 AM 46.0423 152.5348 229° Southwest  Level FlightAware Approximate
Thu 08:31:00 AM 45.9608 152.4025 228° Southwest  Level FlightAware Approximate
Thu 08:32:00 AM 45.8791 152.2707 228° Southwest  Level FlightAware Approximate
Thu 08:33:00 AM 45.7973 152.1392 228° Southwest  Level FlightAware Approximate
Thu 08:34:00 AM 45.7153 152.0081 228° Southwest  Level FlightAware Approximate
Thu 08:35:00 AM 45.6332 151.8774 228° Southwest  Level FlightAware Approximate
Thu 08:36:00 AM 45.5509 151.7471 228° Southwest  Level FlightAware Approximate
Thu 08:37:00 AM 45.4687 151.6169 228° Southwest  Level FlightAware Approximate
Thu 08:38:00 AM 45.3865 151.4868 228° Southwest  Level FlightAware Approximate
Thu 08:39:00 AM 45.3042 151.3571 228° Southwest  Level FlightAware Approximate
Thu 08:40:00 AM 45.2217 151.2278 228° Southwest  Level FlightAware Approximate
Thu 08:41:00 AM 45.1391 151.0988 228° Southwest  Level FlightAware Approximate
Thu 08:42:00 AM 45.0564 150.9703 228° Southwest  Level FlightAware Approximate
Thu 08:43:00 AM 44.9735 150.8421 228° Southwest  Level FlightAware Approximate
Thu 08:44:00 AM 44.8905 150.7142 228° Southwest  Level FlightAware Approximate
Thu 08:45:00 AM 44.8073 150.5867 227° Southwest  Level FlightAware Approximate
Thu 08:46:00 AM 44.7240 150.4596 227° Southwest  Level FlightAware Approximate
Thu 08:47:00 AM 44.6405 150.3329 227° Southwest  Level FlightAware Approximate
Thu 08:48:00 AM 44.5569 150.2065 227° Southwest  Level FlightAware Approximate
Thu 08:49:00 AM 44.4732 150.0805 227° Southwest  Level FlightAware Approximate
Thu 08:50:00 AM 44.3893 149.9549 227° Southwest  Level FlightAware Approximate
Thu 08:51:00 AM 44.3053 149.8296 227° Southwest  Level FlightAware Approximate
Thu 08:52:00 AM 44.2212 149.7047 227° Southwest  Level FlightAware Approximate
Thu 08:53:00 AM 44.1369 149.5801 227° Southwest  Level FlightAware Approximate
Thu 08:54:00 AM 44.0525 149.4559 227° Southwest  Level FlightAware Approximate
Thu 08:55:00 AM 43.9679 149.3320 227° Southwest  Level FlightAware Approximate
Thu 08:56:00 AM 43.8833 149.2085 226° Southwest  Level FlightAware Approximate
Thu 08:57:00 AM 43.7984 149.0853 226° Southwest  Level FlightAware Approximate
Thu 08:58:00 AM 43.7135 148.9625 226° Southwest  Level FlightAware Approximate
Thu 08:59:00 AM 43.6284 148.8401 226° Southwest  Level FlightAware Approximate
Thu 09:00:00 AM 43.5432 148.7180 226° Southwest  Level FlightAware Approximate
Thu 09:01:00 AM 43.4579 148.5962 226° Southwest  Level FlightAware Approximate
Thu 09:02:00 AM 43.3724 148.4748 226° Southwest  Level FlightAware Approximate
Thu 09:03:00 AM 43.2868 148.3537 226° Southwest  Level FlightAware Approximate
Thu 09:04:00 AM 43.2011 148.2329 226° Southwest  Level FlightAware Approximate
Thu 09:05:00 AM 43.1152 148.1125 226° Southwest  Level FlightAware Approximate
Thu 09:06:00 AM 43.0292 147.9925 226° Southwest  Level FlightAware Approximate
Thu 09:07:00 AM 42.9431 147.8727 226° Southwest  Level FlightAware Approximate
Thu 09:08:00 AM 42.8569 147.7533 225° Southwest  Level FlightAware Approximate
Thu 09:09:00 AM 42.7705 147.6343 225° Southwest  Level FlightAware Approximate
Thu 09:10:00 AM 42.6841 147.5155 225° Southwest  Level FlightAware Approximate
Thu 09:11:00 AM 42.5975 147.3972 225° Southwest  Level FlightAware Approximate
Thu 09:12:00 AM 42.5108 147.2791 225° Southwest  Level FlightAware Approximate
Thu 09:13:00 AM 42.4239 147.1613 225° Southwest  Level FlightAware Approximate
Thu 09:14:00 AM 42.3370 147.0439 225° Southwest  Level FlightAware Approximate
Thu 09:15:00 AM 42.2499 146.9268 225° Southwest  Level FlightAware Approximate
Thu 09:16:00 AM 42.1627 146.8101 225° Southwest  Level FlightAware Approximate
Thu 09:17:00 AM 42.0754 146.6936 225° Southwest  Level FlightAware Approximate
Thu 09:18:00 AM 41.9879 146.5775 225° Southwest  Level FlightAware Approximate
Thu 09:19:00 AM 41.9004 146.4617 225° Southwest  Level FlightAware Approximate
Thu 09:20:00 AM 41.8127 146.3462 224° Southwest  Level FlightAware Approximate
Thu 09:21:00 AM 41.7249 146.2310 224° Southwest  Level FlightAware Approximate
Thu 09:22:00 AM 41.6371 146.1161 224° Southwest  Level FlightAware Approximate
Thu 09:23:00 AM 41.5490 146.0016 224° Southwest  Level FlightAware Approximate
Thu 09:24:00 AM 41.4609 145.8873 224° Southwest  Level FlightAware Approximate
Thu 09:25:00 AM 41.3727 145.7734 224° Southwest  Level FlightAware Approximate
Thu 09:26:00 AM 41.2843 145.6598 224° Southwest  Level FlightAware Approximate
Thu 09:27:00 AM 41.1959 145.5465 224° Southwest  Level FlightAware Approximate
Thu 09:28:00 AM 41.1073 145.4335 224° Southwest  Level FlightAware Approximate
Thu 09:29:00 AM 41.0186 145.3208 224° Southwest  Level FlightAware Approximate
Thu 09:30:00 AM 40.9298 145.2084 224° Southwest  Level FlightAware Approximate
Thu 09:31:00 AM 40.8409 145.0963 224° Southwest  Level FlightAware Approximate
Thu 09:32:00 AM 40.7519 144.9845 224° Southwest  Level FlightAware Approximate
Thu 09:33:00 AM 40.6628 144.8730 224° Southwest  Level FlightAware Approximate
Thu 09:34:00 AM 40.5736 144.7618 223° Southwest  Level FlightAware Approximate
Thu 09:35:00 AM 40.4843 144.6509 223° Southwest  Level FlightAware Approximate
Thu 09:36:00 AM 40.3948 144.5403 223° Southwest  Level FlightAware Approximate
Thu 09:37:00 AM 40.3053 144.4300 223° Southwest  Level FlightAware Approximate
Thu 09:38:00 AM 40.2157 144.3199 223° Southwest  Level FlightAware Approximate
Thu 09:39:00 AM 40.1259 144.2102 223° Southwest  Level FlightAware Approximate
Thu 09:40:00 AM 40.0361 144.1008 223° Southwest  Level FlightAware Approximate
Thu 09:41:00 AM 39.9461 143.9916 223° Southwest  Level FlightAware Approximate
Thu 09:42:00 AM 39.8561 143.8828 223° Southwest  Level FlightAware Approximate
Thu 09:43:00 AM 39.7659 143.7742 223° Southwest  Level FlightAware Approximate
Thu 09:44:00 AM 39.6756 143.6659 223° Southwest  Level FlightAware Approximate
Thu 09:45:00 AM 39.5853 143.5579 223° Southwest  Level FlightAware Approximate
Thu 09:46:00 AM 39.4948 143.4501 223° Southwest  Level FlightAware Approximate
Thu 09:47:00 AM 39.4043 143.3427 223° Southwest  Level FlightAware Approximate
Thu 09:48:00 AM 39.3137 143.2354 222° Southwest  Level FlightAware Approximate
Thu 09:49:00 AM 39.2229 143.1285 222° Southwest  Level FlightAware Approximate
Thu 09:50:00 AM 39.1321 143.0218 222° Southwest  Level FlightAware Approximate
Thu 09:51:00 AM 39.0412 142.9155 222° Southwest  Level FlightAware Approximate
Thu 09:52:00 AM 38.9502 142.8094 222° Southwest  Level FlightAware Approximate
Thu 09:53:00 AM 38.8591 142.7035 222° Southwest  Level FlightAware Approximate
Thu 09:54:00 AM 38.7679 142.5979 222° Southwest  Level FlightAware Approximate
Thu 09:55:00 AM 38.6766 142.4926 222° Southwest  Level FlightAware Approximate
Thu 09:56:00 AM 38.5852 142.3876 222° Southwest  Level FlightAware Approximate
Thu 09:57:00 AM 38.4937 142.2829 222° Southwest  Level FlightAware Approximate
Thu 09:58:00 AM 38.4021 142.1783 222° Southwest  Level FlightAware Approximate
Thu 09:59:00 AM 38.3104 142.0741 222° Southwest  Level FlightAware Approximate
Thu 10:00:00 AM 38.2187 141.9702 222° Southwest  Level FlightAware Approximate
Thu 10:01:00 AM 38.1268 141.8664 222° Southwest  Level FlightAware Approximate
Thu 10:02:00 AM 38.0349 141.7630 222° Southwest  Level FlightAware Approximate
Thu 10:03:00 AM 37.9428 141.6598 221° Southwest  Level FlightAware Approximate
Thu 10:04:00 AM 37.8507 141.5569 221° Southwest  Level FlightAware Approximate
Thu 10:05:00 AM 37.7585 141.4542 221° Southwest  Level FlightAware Approximate
Thu 10:06:00 AM 37.6661 141.3518 221° Southwest  Level FlightAware Approximate
Thu 10:07:00 AM 37.5737 141.2496 221° Southwest  Level FlightAware Approximate
Thu 10:08:00 AM 37.4813 141.1477 221° Southwest  Level FlightAware Approximate
Thu 10:09:00 AM 37.3889 141.0459 221° Southwest  Level FlightAware Approximate
Thu 10:10:00 AM 37.2963 140.9443 221° Southwest  Level FlightAware Approximate
Thu 10:11:00 AM 37.2037 140.8429 221° Southwest  Level FlightAware Approximate
Thu 10:12:00 AM 37.1110 140.7418 221° Southwest  Level FlightAware Approximate
Thu 10:13:00 AM 37.0183 140.6410 221° Southwest  Level FlightAware Approximate
Thu 10:14:00 AM 36.9254 140.5404 221° Southwest  Level FlightAware Approximate
Thu 10:15:00 AM 36.8325 140.4400 221° Southwest  Level FlightAware Approximate
Thu 10:16:00 AM 36.7394 140.3399 221° Southwest  Level FlightAware Approximate
Thu 10:17:00 AM 36.6794 140.2069 242° Southwest  Level FlightAware Approximate
Thu 10:18:00 AM 36.6216 140.0719 242° Southwest  Level FlightAware Approximate
Thu 10:19:00 AM 36.5635 139.9371 242° Southwest  Level FlightAware Approximate
Thu 10:20:00 AM 36.5054 139.8024 242° Southwest  Level FlightAware Approximate
Thu 10:21:00 AM 36.4471 139.6680 242° Southwest  Level FlightAware Approximate
Thu 10:22:00 AM 36.3886 139.5338 242° Southwest  Level FlightAware Approximate
Thu 10:23:00 AM 36.3300 139.3997 242° Southwest  Level FlightAware Approximate
Thu 10:24:00 AM 36.2713 139.2659 241° Southwest  Level FlightAware Approximate
Thu 10:25:00 AM 36.2123 139.1323 241° Southwest  Level FlightAware Approximate
Thu 10:26:00 AM 36.1531 138.9990 241° Southwest  Level FlightAware Approximate
Thu 10:27:00 AM 36.0936 138.8660 241° Southwest  Level FlightAware Approximate
Thu 10:28:00 AM 36.0339 138.7332 241° Southwest  Level FlightAware Approximate
Thu 10:29:00 AM 35.9741 138.6006 241° Southwest  Level FlightAware Approximate
Thu 10:30:00 AM 35.9141 138.4682 241° Southwest  Level FlightAware Approximate
Thu 10:31:00 AM 35.8540 138.3360 241° Southwest  Level FlightAware Approximate
Thu 10:32:00 AM 35.7937 138.2041 241° Southwest  Level FlightAware Approximate
Thu 10:33:00 AM 35.7333 138.0723 241° Southwest  Level FlightAware Approximate
Thu 10:34:00 AM 35.6727 137.9407 240° Southwest  Level FlightAware Approximate
Thu 10:35:00 AM 35.6120 137.8093 240° Southwest  Level FlightAware Approximate
Thu 10:36:00 AM 35.5566 137.6745 244° Southwest  Level FlightAware Approximate
Thu 10:37:00 AM 35.5024 137.5391 244° Southwest  Level FlightAware Approximate
Thu 10:38:00 AM 35.4299 137.4254 209° Southwest  Level FlightAware Approximate
Thu 10:39:00 AM 35.3220 137.3532 209° Southwest  Level FlightAware Approximate
Thu 10:40:00 AM 35.2142 137.2813 209° Southwest  Level FlightAware Approximate
Thu 10:41:00 AM 35.1063 137.2096 209° Southwest  Level FlightAware Approximate
Thu 10:42:00 AM 34.9977 137.1393 208° Southwest  Level FlightAware Approximate
Thu 10:43:00 AM 34.8889 137.0699 208° Southwest  Level FlightAware Approximate
Thu 10:44:00 AM 34.7800 137.0007 208° Southwest  Level FlightAware Approximate
Thu 10:45:00 AM 34.6738 136.9263 217° Southwest  Level FlightAware Approximate
Thu 10:46:00 AM 34.5752 136.8373 217° Southwest  Level FlightAware Approximate
Thu 10:47:00 AM 34.4766 136.7486 217° Southwest  Level FlightAware Approximate
Thu 10:48:00 AM 34.3778 136.6600 217° Southwest  Level FlightAware Approximate
Thu 10:49:00 AM 34.2827 136.5660 220° Southwest  Level FlightAware Approximate
Thu 10:50:00 AM 34.1825 136.4825 220° Southwest  Level FlightAware Approximate
Thu 10:51:00 AM 34.0879 136.3878 220° Southwest  Level FlightAware Approximate
Thu 10:52:00 AM 33.9907 136.2971 218° Southwest  Level FlightAware Approximate
Thu 10:53:00 AM 33.8934 136.2068 218° Southwest  Level FlightAware Approximate
Thu 10:54:00 AM 33.7961 136.1167 218° Southwest  Level FlightAware Approximate
Thu 10:55:00 AM 33.6986 136.0268 218° Southwest  Level FlightAware Approximate
Thu 10:56:00 AM 33.6011 135.9371 217° Southwest  Level FlightAware Approximate
Thu 10:57:00 AM 33.5035 135.8476 217° Southwest  Level FlightAware Approximate
Thu 10:58:00 AM 33.4099 135.7530 227° Southwest  Level FlightAware Approximate
Thu 10:59:00 AM 33.3263 135.6452 227° Southwest  Level FlightAware Approximate
Thu 11:00:00 AM 33.2427 135.5376 227° Southwest  Level FlightAware Approximate
Thu 11:01:00 AM 33.1590 135.4301 227° Southwest  Level FlightAware Approximate
Thu 11:02:00 AM 33.0754 135.3228 228° Southwest  Level FlightAware Approximate
Thu 11:03:00 AM 32.9929 135.2142 228° Southwest  Level FlightAware Approximate
Thu 11:04:00 AM 32.9103 135.1059 228° Southwest  Level FlightAware Approximate
Thu 11:05:00 AM 32.8277 134.9977 228° Southwest  Level FlightAware Approximate
Thu 11:06:00 AM 32.7438 134.8910 227° Southwest  Level FlightAware Approximate
Thu 11:07:00 AM 32.6596 134.7848 227° Southwest  Level FlightAware Approximate
Thu 11:08:00 AM 32.5753 134.6787 227° Southwest  Level FlightAware Approximate
Thu 11:09:00 AM 32.4909 134.5728 227° Southwest  Level FlightAware Approximate
Thu 11:10:00 AM 32.4065 134.4671 227° Southwest  Level FlightAware Approximate
Thu 11:11:00 AM 32.3219 134.3617 227° Southwest  Level FlightAware Approximate
Thu 11:12:00 AM 32.2373 134.2564 226° Southwest  Level FlightAware Approximate
Thu 11:13:00 AM 32.1526 134.1513 226° Southwest  Level FlightAware Approximate
Thu 11:14:00 AM 32.0678 134.0464 226° Southwest  Level FlightAware Approximate
Thu 11:15:00 AM 31.9832 133.9414 227° Southwest  Level FlightAware Approximate
Thu 11:16:00 AM 31.8990 133.8360 227° Southwest  Level FlightAware Approximate
Thu 11:17:00 AM 31.8147 133.7309 226° Southwest  Level FlightAware Approximate
Thu 11:18:00 AM 31.7295 133.6267 226° Southwest  Level FlightAware Approximate
Thu 11:19:00 AM 31.6443 133.5228 226° Southwest  Level FlightAware Approximate
Thu 11:20:00 AM 31.5590 133.4191 226° Southwest  Level FlightAware Approximate
Thu 11:21:00 AM 31.4736 133.3155 226° Southwest  Level FlightAware Approximate
Thu 11:22:00 AM 31.3882 133.2121 226° Southwest  Level FlightAware Approximate
Thu 11:23:00 AM 31.3026 133.1089 226° Southwest  Level FlightAware Approximate
Thu 11:24:00 AM 31.2170 133.0059 226° Southwest  Level FlightAware Approximate
Thu 11:25:00 AM 31.1313 132.9031 226° Southwest  Level FlightAware Approximate
Thu 11:26:00 AM 31.0455 132.8005 226° Southwest  Level FlightAware Approximate
Thu 11:27:00 AM 30.9596 132.6980 226° Southwest  Level FlightAware Approximate
Thu 11:28:00 AM 30.8737 132.5958 226° Southwest  Level FlightAware Approximate
Thu 11:29:00 AM 30.7876 132.4937 226° Southwest  Level FlightAware Approximate
Thu 11:30:00 AM 30.7015 132.3918 226° Southwest  Level FlightAware Approximate
Thu 11:31:00 AM 30.6153 132.2901 225° Southwest  Level FlightAware Approximate
Thu 11:32:00 AM 30.5290 132.1886 225° Southwest  Level FlightAware Approximate
Thu 11:33:00 AM 30.4427 132.0872 225° Southwest  Level FlightAware Approximate
Thu 11:34:00 AM 30.3563 131.9861 225° Southwest  Level FlightAware Approximate
Thu 11:35:00 AM 30.2698 131.8851 225° Southwest  Level FlightAware Approximate
Thu 11:36:00 AM 30.1832 131.7843 225° Southwest  Level FlightAware Approximate
Thu 11:37:00 AM 30.0965 131.6836 225° Southwest  Level FlightAware Approximate
Thu 11:38:00 AM 30.0098 131.5831 225° Southwest  Level FlightAware Approximate
Thu 11:39:00 AM 29.9230 131.4828 225° Southwest  Level FlightAware Approximate
Thu 11:40:00 AM 29.8362 131.3826 225° Southwest  Level FlightAware Approximate
Thu 11:41:00 AM 29.7493 131.2826 225° Southwest  Level FlightAware Approximate
Thu 11:42:00 AM 29.6623 131.1828 225° Southwest  Level FlightAware Approximate
Thu 11:43:00 AM 29.5753 131.0831 225° Southwest  Level FlightAware Approximate
Thu 11:44:00 AM 29.4881 130.9836 225° Southwest  Level FlightAware Approximate
Thu 11:45:00 AM 29.4010 130.8842 225° Southwest  Level FlightAware Approximate
Thu 11:46:00 AM 29.3137 130.7851 225° Southwest  Level FlightAware Approximate
Thu 11:47:00 AM 29.2264 130.6861 225° Southwest  Level FlightAware Approximate
Thu 11:48:00 AM 29.1390 130.5872 225° Southwest  Level FlightAware Approximate
Thu 11:49:00 AM 29.0515 130.4886 225° Southwest  Level FlightAware Approximate
Thu 11:50:00 AM 28.9639 130.3901 225° Southwest  Level FlightAware Approximate
Thu 11:51:00 AM 28.8763 130.2918 225° Southwest  Level FlightAware Approximate
Thu 11:52:00 AM 28.7886 130.1936 224° Southwest  Level FlightAware Approximate
Thu 11:53:00 AM 28.7008 130.0956 224° Southwest  Level FlightAware Approximate
Thu 11:54:00 AM 28.6130 129.9978 224° Southwest  Level FlightAware Approximate
Thu 11:55:00 AM 28.5252 129.8999 224° Southwest  Level FlightAware Approximate
Thu 11:56:00 AM 28.4375 129.8022 224° Southwest  Level FlightAware Approximate
Thu 11:57:00 AM 28.3496 129.7047 224° Southwest  Level FlightAware Approximate
Thu 11:58:00 AM 28.2617 129.6073 224° Southwest  Level FlightAware Approximate
Thu 11:59:00 AM 28.1737 129.5101 224° Southwest  Level FlightAware Approximate
Thu 12:00:00 PM 28.0856 129.4130 224° Southwest  Level FlightAware Approximate
Thu 12:01:00 PM 27.9975 129.3161 224° Southwest  Level FlightAware Approximate
Thu 12:02:00 PM 27.9093 129.2193 224° Southwest  Level FlightAware Approximate
Thu 12:03:00 PM 27.8210 129.1227 224° Southwest  Level FlightAware Approximate
Thu 12:04:00 PM 27.7327 129.0263 224° Southwest  Level FlightAware Approximate
Thu 12:05:00 PM 27.6442 128.9300 224° Southwest  Level FlightAware Approximate
Thu 12:06:00 PM 27.5557 128.8339 224° Southwest  Level FlightAware Approximate
Thu 12:07:00 PM 27.4672 128.7379 224° Southwest  Level FlightAware Approximate
Thu 12:08:00 PM 27.3751 128.6466 218° Southwest  Level FlightAware Approximate
Thu 12:09:00 PM 27.2785 128.5613 218° Southwest  Level FlightAware Approximate
Thu 12:10:00 PM 27.1817 128.4762 218° Southwest  Level FlightAware Approximate
Thu 12:11:00 PM 27.0850 128.3912 218° Southwest  Level FlightAware Approximate
Thu 12:12:00 PM 26.9881 128.3065 217° Southwest  Level FlightAware Approximate
Thu 12:13:00 PM 26.8902 128.2231 217° Southwest  Level FlightAware Approximate
Thu 12:14:00 PM 26.7924 128.1400 217° Southwest  Level FlightAware Approximate
Thu 12:15:00 PM 26.6945 128.0569 217° Southwest  Level FlightAware Approximate
Thu 12:16:00 PM 26.5985 127.9713 219° Southwest  Level FlightAware Approximate
Thu 12:17:00 PM 26.5032 127.8847 219° Southwest  Level FlightAware Approximate
Thu 12:18:00 PM 26.4051 127.8021 216° Southwest  Level FlightAware Approximate
Thu 12:19:00 PM 26.3063 127.7207 216° Southwest  Level FlightAware Approximate
Thu 12:20:00 PM 26.2074 127.6394 216° Southwest  Level FlightAware Approximate
Thu 12:21:00 PM 26.0950 127.5851 202° Southwest  Level FlightAware Approximate
Thu 12:22:00 PM 25.9814 127.5330 202° Southwest  Level FlightAware Approximate
Thu 12:23:00 PM 25.8678 127.4811 202° Southwest  Level FlightAware Approximate
Thu 12:24:00 PM 25.7542 127.4292 202° Southwest  Level FlightAware Approximate
Thu 12:25:00 PM 25.6406 127.3775 202° Southwest  Level FlightAware Approximate
Thu 12:26:00 PM 25.5270 127.3258 202° Southwest  Level FlightAware Approximate
Thu 12:27:00 PM 25.4133 127.2741 203° Southwest  Level FlightAware Approximate
Thu 12:28:00 PM 25.2999 127.2219 203° Southwest  Level FlightAware Approximate
Thu 12:29:00 PM 25.1865 127.1698 203° Southwest  Level FlightAware Approximate
Thu 12:30:00 PM 25.0731 127.1178 203° Southwest  Level FlightAware Approximate
Thu 12:31:00 PM 24.9597 127.0659 203° Southwest  Level FlightAware Approximate
Thu 12:32:00 PM 24.8462 127.0141 203° Southwest  Level FlightAware Approximate
Thu 12:33:00 PM 24.7327 126.9623 202° Southwest  Level FlightAware Approximate
Thu 12:34:00 PM 24.6192 126.9107 202° Southwest  Level FlightAware Approximate
Thu 12:35:00 PM 24.5057 126.8592 202° Southwest  Level FlightAware Approximate
Thu 12:36:00 PM 24.3921 126.8077 202° Southwest  Level FlightAware Approximate
Thu 12:37:00 PM 24.2786 126.7564 202° Southwest  Level FlightAware Approximate
Thu 12:38:00 PM 24.1650 126.7051 202° Southwest  Level FlightAware Approximate
Thu 12:39:00 PM 24.0515 126.6536 203° Southwest  Level FlightAware Approximate
Thu 12:40:00 PM 23.9381 126.6019 203° Southwest  Level FlightAware Approximate
Thu 12:41:00 PM 23.8247 126.5503 203° Southwest  Level FlightAware Approximate
Thu 12:42:00 PM 23.7113 126.4989 203° Southwest  Level FlightAware Approximate
Thu 12:43:00 PM 23.5979 126.4475 203° Southwest  Level FlightAware Approximate
Thu 12:44:00 PM 23.4844 126.3961 203° Southwest  Level FlightAware Approximate
Thu 12:45:00 PM 23.3710 126.3449 203° Southwest  Level FlightAware Approximate
Thu 12:46:00 PM 23.2575 126.2938 202° Southwest  Level FlightAware Approximate
Thu 12:47:00 PM 23.1440 126.2427 202° Southwest  Level FlightAware Approximate
Thu 12:48:00 PM 23.0304 126.1918 202° Southwest  Level FlightAware Approximate
Thu 12:49:00 PM 22.9169 126.1409 202° Southwest  Level FlightAware Approximate
Thu 12:50:00 PM 22.8039 126.0886 203° Southwest  Level FlightAware Approximate
Thu 12:51:00 PM 22.6910 126.0361 203° Southwest  Level FlightAware Approximate
Thu 12:52:00 PM 22.5781 125.9837 203° Southwest  Level FlightAware Approximate
Thu 12:53:00 PM 22.4652 125.9314 203° Southwest  Level FlightAware Approximate
Thu 12:54:00 PM 22.3523 125.8792 203° Southwest  Level FlightAware Approximate
Thu 12:55:00 PM 22.2394 125.8270 203° Southwest  Level FlightAware Approximate
Thu 12:56:00 PM 22.1264 125.7749 203° Southwest  Level FlightAware Approximate
Thu 12:57:00 PM 22.0134 125.7230 203° Southwest  Level FlightAware Approximate
Thu 12:58:00 PM 21.9004 125.6711 203° Southwest  Level FlightAware Approximate
Thu 12:59:00 PM 21.7874 125.6193 203° Southwest  Level FlightAware Approximate
Thu 01:00:00 PM 21.6744 125.5675 203° Southwest  Level FlightAware Approximate
Thu 01:01:00 PM 21.5613 125.5159 203° Southwest  Level FlightAware Approximate
Thu 01:02:00 PM 21.4483 125.4643 203° Southwest  Level FlightAware Approximate
Thu 01:03:00 PM 21.3352 125.4128 203° Southwest  Level FlightAware Approximate
Thu 01:04:00 PM 21.2221 125.3614 203° Southwest  Level FlightAware Approximate
Thu 01:05:00 PM 21.1090 125.3101 203° Southwest  Level FlightAware Approximate
Thu 01:06:00 PM 21.0001 125.2501 212° Southwest  Level FlightAware Approximate
Thu 01:07:00 PM 20.8881 125.1961 204° Southwest  Level FlightAware Approximate
Thu 01:08:00 PM 20.7761 125.1421 204° Southwest  Level FlightAware Approximate
Thu 01:09:00 PM 20.6641 125.0883 204° Southwest  Level FlightAware Approximate
Thu 01:10:00 PM 20.5521 125.0345 204° Southwest  Level FlightAware Approximate
Thu 01:11:00 PM 20.4400 124.9809 204° Southwest  Level FlightAware Approximate
Thu 01:12:00 PM 20.3279 124.9273 204° Southwest  Level FlightAware Approximate
Thu 01:13:00 PM 20.2158 124.8737 204° Southwest  Level FlightAware Approximate
Thu 01:14:00 PM 20.1037 124.8203 204° Southwest  Level FlightAware Approximate
Thu 01:15:00 PM 19.9916 124.7669 204° Southwest  Level FlightAware Approximate
Thu 01:16:00 PM 19.8795 124.7136 204° Southwest  Level FlightAware Approximate
Thu 01:17:00 PM 19.7673 124.6604 204° Southwest  Level FlightAware Approximate
Thu 01:18:00 PM 19.6551 124.6073 204° Southwest  Level FlightAware Approximate
Thu 01:19:00 PM 19.5430 124.5542 204° Southwest  Level FlightAware Approximate
Thu 01:20:00 PM 19.4308 124.5012 204° Southwest  Level FlightAware Approximate
Thu 01:21:00 PM 19.3186 124.4483 204° Southwest  Level FlightAware Approximate
Thu 01:22:00 PM 19.2063 124.3954 204° Southwest  Level FlightAware Approximate
Thu 01:23:00 PM 19.0941 124.3427 204° Southwest  Level FlightAware Approximate
Thu 01:24:00 PM 18.9818 124.2899 204° Southwest  Level FlightAware Approximate
Thu 01:25:00 PM 18.8695 124.2373 204° Southwest  Level FlightAware Approximate
Thu 01:26:00 PM 18.7572 124.1848 204° Southwest  Level FlightAware Approximate
Thu 01:27:00 PM 18.6449 124.1322 204° Southwest  Level FlightAware Approximate
Thu 01:28:00 PM 18.5326 124.0798 204° Southwest  Level FlightAware Approximate
Thu 01:29:00 PM 18.4203 124.0275 204° Southwest  Level FlightAware Approximate
Thu 01:30:00 PM 18.3079 123.9752 204° Southwest  Level FlightAware Approximate
Thu 01:31:00 PM 18.1956 123.9230 204° Southwest  Level FlightAware Approximate
Thu 01:32:00 PM 18.0832 123.8708 204° Southwest  Level FlightAware Approximate
Thu 01:33:00 PM 17.9708 123.8187 204° Southwest  Level FlightAware Approximate
Thu 01:34:00 PM 17.8584 123.7667 204° Southwest  Level FlightAware Approximate
Thu 01:35:00 PM 17.7460 123.7148 204° Southwest  Level FlightAware Approximate
Thu 01:36:00 PM 17.6336 123.6629 204° Southwest  Level FlightAware Approximate
Thu 01:37:00 PM 17.5212 123.6109 204° Southwest  Level FlightAware Approximate
Thu 01:38:00 PM 17.4091 123.5581 204° Southwest  Level FlightAware Approximate
Thu 01:39:00 PM 17.2971 123.5054 204° Southwest  Level FlightAware Approximate
Thu 01:40:00 PM 17.1851 123.4527 204° Southwest  Level FlightAware Approximate
Thu 01:41:00 PM 17.0730 123.4001 204° Southwest  Level FlightAware Approximate
Thu 01:42:00 PM 16.9609 123.3476 204° Southwest  Level FlightAware Approximate
Thu 01:43:00 PM 16.8488 123.2951 204° Southwest  Level FlightAware Approximate
Thu 01:44:00 PM 16.7367 123.2427 204° Southwest  Level FlightAware Approximate
Thu 01:45:00 PM 16.6243 123.1910 204° Southwest  Level FlightAware Approximate
Thu 01:46:00 PM 16.5119 123.1395 204° Southwest  Level FlightAware Approximate
Thu 01:47:00 PM 16.3994 123.0881 204° Southwest  Level FlightAware Approximate
Thu 01:48:00 PM 16.2869 123.0367 204° Southwest  Level FlightAware Approximate
Thu 01:49:00 PM 16.1744 122.9854 204° Southwest  Level FlightAware Approximate
Thu 01:50:00 PM 16.0619 122.9342 204° Southwest  Level FlightAware Approximate
Thu 01:51:00 PM 15.9493 122.8830 204° Southwest  Level FlightAware Approximate
Thu 01:52:00 PM 15.8368 122.8318 204° Southwest  Level FlightAware Approximate
Thu 01:53:00 PM 15.7250 122.7791 206° Southwest  Level FlightAware Approximate
Thu 01:54:00 PM 15.6124 122.7283 201° Southwest  Level FlightAware Approximate
Thu 01:55:00 PM 15.4978 122.6826 198° South  Level FlightAware Approximate
Thu 01:56:00 PM 15.3831 122.6387 213° Southwest  Level FlightAware Approximate
Thu 01:57:00 PM 15.2728 122.5836 202° Southwest  Level FlightAware Approximate
Thu 01:58:00 PM 15.1597 122.5339 203° Southwest  Level FlightAware Approximate
Thu 01:59:00 PM 15.0500 122.4778 213° Southwest  Level FlightAware Approximate
Thu 02:00:00 PM 14.9368 122.4295 200° South  Level FlightAware Approximate
Thu 02:01:00 PM 14.8216 122.3852 200° South  Level FlightAware Approximate
Thu 02:02:00 PM 14.7138 122.3245 209° Southwest  Level FlightAware Approximate
Thu 02:03:00 PM 14.6850 122.2071 262° West  Level FlightAware Approximate
Thu 02:04:00 PM 14.6677 122.0814 262° West  Level FlightAware Approximate
Thu 02:05:00 PM 14.6503 121.9557 262° West  Level FlightAware Approximate
Thu 02:06:00 PM 14.6327 121.8301 259° West  Level FlightAware Approximate
Thu 02:07:00 PM 14.6101 121.7053 259° West  Level FlightAware Approximate
Thu 02:08:00 PM 14.5893 121.5803 261° West  Level FlightAware Approximate
Thu 02:09:00 PM 14.5700 121.4549 261° West  Level FlightAware Approximate
Thu 02:10:00 PM 14.5562 121.3288 264° West  Level FlightAware Approximate
Thu 02:11:00 PM 14.5374 121.2036 258° West  Level FlightAware Approximate
Thu 02:12:00 PM 14.5167 121.0789 270° West  Level FlightAware Approximate
Thu 02:13:00 PM 14.5167 121.0167 270° West  Level FlightAware Approximate
Thu 02:14:00 PM 14.5086 121.0196 270° West  Level Estimated
Thu 02:15:00 PM 14.5086 121.0196 270° West  Level Estimated
Thu 02:16:00 PM 14.5086 121.0196 270° West  Level Estimated
Thu 02:17:00 PM 14.5086 121.0196 270° West  Level Estimated
Thu 02:18:00 PM 14.5086 121.0196 270° West  Level Estimated
Thu 02:19:00 PM 14.5086 121.0196 270° West  Level Estimated
Thu 02:20:00 PM 14.5086 121.0196 270° West  Level Estimated
Thu 02:21:00 PM 14.5086 121.0196 270° West  Level Estimated
Thu 02:22:00 PM 14.5086 121.0196 270° West  Level Estimated
Thu 02:23:00 PM 14.5086 121.0196 270° West  Level Estimated
Thu 02:24:00 PM 14.5086 121.0196 270° West  Level Estimated
Thu 02:25:00 PM 14.5086 121.0196 270° West  Level Estimated
Thu 02:26:00 PM 14.5086 121.0196 270° West  Level Estimated
Thu 02:27:00 PM 14.5086 121.0196 270° West  Level Estimated
Thu 02:28:00 PM 14.5086 121.0196 270° West  Level Estimated
Thu 02:29:00 PM 14.5086 121.0196 270° West  Level Estimated
Thu 02:30:00 PM 14.5086 121.0196 270° West  Level Estimated
Thu 02:31:00 PM 14.5086 121.0196 270° West  Level Estimated
Thu 02:32:00 PM 14.5086 121.0196 270° West  Level Estimated
Thu 02:33:00 PM 14.5086 121.0196 270° West  Level Estimated
Thu 02:34:00 PM 14.5086 121.0196 270° West  Level Estimated
Thu 02:35:00 PM 14.5086 121.0196 270° West  Level Estimated
Thu 02:36:00 PM 14.5086 121.0196 270° West  Level Estimated

Login

Don't have an account? Register now (free) for customized features, flight alerts, and more!